Time;durP1;ratioP1;P1;durP2;ratioP2;P2;SDS_P1;SDS_P2;PMS_P1;PMS_P2;Temp;Humidity;BMP_temperature;BMP_pressure;BME280_temperature;BME280_humidity;BME280_pressure;Samples;Min_cycle;Max_cycle;Signal;HPM_P1;HPM_P2
2021/07/13 00:01:17;;;;;;;11.48;10.05;;;;;;;22.08;80.60;97907.00;4961922;28;1606802;-58
2021/07/13 00:03:43;;;;;;;13.07;9.85;;;;;;;22.12;80.75;97904.69;5019533;28;20544;-58
2021/07/13 00:06:09;;;;;;;11.55;9.00;;;;;;;22.27;79.74;97925.41;5017544;28;20026;-58
2021/07/13 00:08:35;;;;;;;13.93;10.13;;;;;;;22.04;80.35;97868.84;5017765;28;20029;-58
2021/07/13 00:11:00;;;;;;;13.93;8.55;;;;;;;22.36;79.40;97902.81;5019411;28;20028;-59
2021/07/13 00:13:25;;;;;;;14.52;9.25;;;;;;;22.44;79.35;97894.47;5033013;28;20036;-57
2021/07/13 00:15:52;;;;;;;11.02;8.63;;;;;;;22.46;78.16;97878.34;5020749;28;20486;-58
2021/07/13 00:18:18;;;;;;;14.65;8.73;;;;;;;22.60;77.83;97892.09;5020415;28;20032;-58
2021/07/13 00:20:43;;;;;;;10.75;7.88;;;;;;;22.59;76.91;97893.13;5012401;28;20471;-58
2021/07/13 00:23:09;;;;;;;12.27;8.90;;;;;;;22.61;76.84;97869.81;5017345;28;20033;-58
2021/07/13 00:25:35;;;;;;;10.27;8.68;;;;;;;22.58;76.79;97865.81;5019772;28;20034;-58
2021/07/13 00:28:00;;;;;;;10.77;8.35;;;;;;;22.70;76.48;97864.94;5021083;28;20021;-58
2021/07/13 00:30:26;;;;;;;13.82;9.30;;;;;;;22.50;75.53;97833.63;5019480;28;20026;-58
2021/07/13 00:32:52;;;;;;;10.05;8.65;;;;;;;22.73;75.39;97889.09;5018378;28;20022;-57
2021/07/13 00:35:17;;;;;;;10.02;8.07;;;;;;;22.39;75.21;97846.69;5014558;28;20026;-57
2021/07/13 00:37:43;;;;;;;9.75;8.38;;;;;;;22.74;75.08;97889.91;5020363;28;20025;-58
2021/07/13 00:40:10;;;;;;;10.23;8.40;;;;;;;22.71;75.74;97872.66;5019501;28;20030;-59
2021/07/13 00:42:37;;;;;;;9.85;8.23;;;;;;;22.70;76.06;97905.47;5031225;28;20033;-58
2021/07/13 00:45:04;;;;;;;12.52;8.05;;;;;;;22.49;75.85;97872.56;5019806;28;20025;-59
2021/07/13 00:47:29;;;;;;;12.60;7.88;;;;;;;22.59;75.00;97893.13;5017464;28;20025;-59
2021/07/13 00:49:55;;;;;;;13.23;8.38;;;;;;;22.83;72.75;97909.66;5026748;28;20444;-59
2021/07/13 00:52:21;;;;;;;11.95;8.35;;;;;;;22.74;73.74;97890.69;5034090;28;20049;-59
2021/07/13 00:54:49;;;;;;;11.30;8.65;;;;;;;22.90;72.45;97880.34;5014948;28;20045;-59
2021/07/13 00:57:16;;;;;;;13.43;8.90;;;;;;;22.53;72.46;97823.34;5020986;28;20037;-58
2021/07/13 00:59:42;;;;;;;12.10;8.35;;;;;;;22.78;72.81;97856.56;5030985;28;20442;-59
2021/07/13 01:02:09;;;;;;;9.75;7.95;;;;;;;22.78;72.43;97857.38;5015959;28;20033;-59
2021/07/13 01:04:36;;;;;;;13.18;9.25;;;;;;;22.62;72.07;97826.41;5014678;28;20108;-59
2021/07/13 01:07:07;;;;;;;15.82;8.60;;;;;;;22.79;71.63;97845.72;5023556;28;20091;-59
2021/07/13 01:10:08;;;;;;;9.82;7.88;;;;;;;22.79;71.74;97843.06;4997152;28;20665;-58
2021/07/13 01:12:49;;;;;;;11.32;8.80;;;;;;;22.81;71.83;97837.53;5019546;28;20110;-59
2021/07/13 01:15:17;;;;;;;12.57;8.20;;;;;;;22.87;72.14;97830.47;5020934;28;20053;-59
2021/07/13 01:18:15;;;;;;;12.85;8.75;;;;;;;22.80;73.01;97830.66;5016711;28;20542;-59
2021/07/13 01:20:53;;;;;;;12.55;8.23;;;;;;;22.70;72.60;97831.28;5026831;28;20048;-59
2021/07/13 01:24:00;;;;;;;10.63;8.07;;;;;;;22.78;72.58;97822.13;5016660;28;20064;-58
2021/07/13 01:26:59;;;;;;;11.25;8.07;;;;;;;22.74;73.43;97815.72;5016508;28;20049;-60
2021/07/13 01:29:24;;;;;;;;;;;;;;;22.58;72.76;97819.97;5015893;28;20199;-58
2021/07/13 01:31:51;;;;;;;10.07;7.70;;;;;;;22.67;73.24;97815.06;5036405;28;20007;-57
2021/07/13 01:34:32;;;;;;;11.20;7.68;;;;;;;22.70;72.97;97807.44;5012590;28;20032;-58
2021/07/13 01:37:00;;;;;;;10.23;8.15;;;;;;;22.65;73.94;97800.22;5018865;28;20029;-58
2021/07/13 01:39:26;;;;;;;12.30;7.90;;;;;;;22.43;73.30;97799.34;5038552;28;20140;-59
2021/07/13 01:41:53;;;;;;;12.07;7.57;;;;;;;22.38;73.82;97800.09;5037999;28;20112;-58
2021/07/13 01:44:21;;;;;;;10.63;8.13;;;;;;;22.18;73.93;97760.00;5020852;28;20075;-58
2021/07/13 01:46:49;;;;;;;12.32;7.75;;;;;;;22.29;73.60;97795.41;5033483;28;20044;-58
2021/07/13 01:49:19;;;;;;;11.73;8.52;;;;;;;22.33;74.43;97789.41;5015584;28;20025;-58
2021/07/13 01:51:47;;;;;;;9.55;7.68;;;;;;;22.35;74.20;97784.66;5019215;28;20029;-58
2021/07/13 01:54:15;;;;;;;12.23;7.90;;;;;;;22.21;74.90;97783.34;5017561;28;20391;-59
2021/07/13 01:56:40;;;;;;;11.90;8.40;;;;;;;22.03;75.30;97748.13;5017015;28;20052;-58
2021/07/13 01:59:08;;;;;;;12.05;7.95;;;;;;;22.18;75.53;97763.47;5003700;28;20063;-58
2021/07/13 02:01:33;;;;;;;13.20;7.68;;;;;;;22.42;75.18;97801.19;5036837;28;20033;-58
2021/07/13 02:04:01;;;;;;;14.00;8.70;;;;;;;22.29;75.24;97769.75;5017381;28;20032;-57
2021/07/13 02:06:26;;;;;;;8.98;8.00;;;;;;;22.23;75.27;97773.31;5015903;28;20112;-58
2021/07/13 02:08:54;;;;;;;10.48;7.78;;;;;;;21.83;75.43;97753.06;5013462;28;20162;-58
2021/07/13 02:11:20;;;;;;;13.20;8.10;;;;;;;21.98;75.62;97769.22;5022592;28;20041;-58
2021/07/13 02:13:45;;;;;;;11.05;8.60;;;;;;;22.13;76.07;97770.53;5028232;28;20384;-58
2021/07/13 02:16:11;;;;;;;10.23;7.82;;;;;;;21.77;74.78;97709.03;5018971;28;20397;-58
2021/07/13 02:18:36;;;;;;;11.40;7.85;;;;;;;22.08;75.93;97739.47;5014500;28;20033;-58
2021/07/13 02:21:03;;;;;;;10.32;7.50;;;;;;;22.03;75.11;97729.59;5020158;28;20090;-58
2021/07/13 02:23:29;;;;;;;10.80;8.07;;;;;;;22.28;75.64;97762.84;5030881;28;20259;-58
2021/07/13 02:25:57;;;;;;;11.13;7.75;;;;;;;22.16;74.87;97768.19;5019310;28;20571;-58
2021/07/13 02:28:35;;;;;;;11.90;7.83;;;;;;;21.98;75.46;97785.09;5021780;28;20037;-58
2021/07/13 02:31:21;;;;;;;10.50;8.10;;;;;;;22.05;76.24;97759.28;5035288;28;20029;-58
2021/07/13 02:34:00;;;;;;;10.40;7.47;;;;;;;22.03;75.79;97763.19;5033836;28;20049;-58
2021/07/13 02:36:33;;;;;;;11.77;7.53;;;;;;;22.08;75.23;97763.28;5001458;28;20431;-58
2021/07/13 02:38:59;;;;;;;13.73;7.68;;;;;;;22.07;74.67;97749.25;5037424;28;20753;-58
2021/07/13 02:41:25;;;;;;;11.75;7.53;;;;;;;22.22;75.89;97746.03;5020476;28;20033;-59
2021/07/13 02:43:52;;;;;;;9.57;7.85;;;;;;;22.25;75.26;97747.41;5028331;28;20549;-58
2021/07/13 02:46:19;;;;;;;9.65;7.40;;;;;;;22.31;75.23;97738.53;5021416;28;20029;-59
2021/07/13 02:48:45;;;;;;;9.68;7.15;;;;;;;22.20;75.06;97711.06;5020621;28;20041;-58
2021/07/13 02:51:11;;;;;;;10.43;6.90;;;;;;;22.33;75.43;97749.69;5018663;28;20037;-59
2021/07/13 02:53:37;;;;;;;10.60;7.43;;;;;;;22.43;75.00;97741.91;5012869;28;20511;-59
2021/07/13 02:56:06;;;;;;;10.60;8.18;;;;;;;22.41;75.43;97743.97;5030280;28;20067;-58
2021/07/13 02:58:32;;;;;;;10.55;7.50;;;;;;;22.39;75.87;97738.13;5015630;28;20036;-59
2021/07/13 03:00:58;;;;;;;8.57;7.35;;;;;;;22.44;75.45;97729.44;5029541;28;20064;-58
2021/07/13 03:03:24;;;;;;;12.55;8.00;;;;;;;22.47;74.53;97736.91;5031878;28;20822;-59
2021/07/13 03:05:51;;;;;;;12.02;7.45;;;;;;;22.47;74.82;97736.91;5020762;28;20034;-58
2021/07/13 03:08:20;;;;;;;11.30;7.63;;;;;;;22.45;74.60;97715.16;5017278;28;20124;-58
2021/07/13 03:10:46;;;;;;;9.20;7.45;;;;;;;22.42;75.00;97715.66;5016782;28;20025;-59
2021/07/13 03:13:12;;;;;;;11.30;7.55;;;;;;;22.16;74.95;97667.59;5033517;28;20025;-60
2021/07/13 03:15:37;;;;;;;11.98;7.95;;;;;;;22.22;75.07;97673.75;5015837;28;20479;-59
2021/07/13 03:18:03;;;;;;;10.00;7.60;;;;;;;22.15;75.35;97681.06;5032485;28;20029;-58
2021/07/13 03:20:29;;;;;;;10.70;7.88;;;;;;;22.18;75.92;97691.19;5019174;28;20043;-59
2021/07/13 03:22:56;;;;;;;10.50;7.55;;;;;;;22.32;76.56;97689.03;5020234;28;20057;-59
2021/07/13 03:25:32;;;;;;;12.00;8.55;;;;;;;22.15;77.24;97681.06;5012424;28;20091;-59
2021/07/13 03:27:59;;;;;;;11.00;7.85;;;;;;;22.06;76.71;97680.66;5032195;28;20029;-58
2021/07/13 03:30:25;;;;;;;10.20;8.02;;;;;;;21.98;76.25;97646.69;5032341;28;20038;-59
2021/07/13 03:32:52;;;;;;;10.45;8.32;;;;;;;21.72;76.63;97640.97;5019201;28;20519;-59
2021/07/13 03:35:19;;;;;;;9.90;8.80;;;;;;;21.86;77.58;97666.06;5022857;28;20037;-59
2021/07/13 03:37:46;;;;;;;11.88;8.93;;;;;;;21.77;76.64;97621.75;5017296;28;20555;-59
2021/07/13 03:40:12;;;;;;;14.35;8.55;;;;;;;21.91;76.32;97640.75;5035982;28;20029;-59
2021/07/13 03:42:38;;;;;;;11.70;10.02;;;;;;;22.00;77.95;97642.75;5015598;28;20033;-59
2021/07/13 03:45:05;;;;;;;13.52;9.10;;;;;;;21.81;78.43;97651.97;5036424;28;20123;-59
2021/07/13 03:47:30;;;;;;;13.82;10.77;;;;;;;21.59;78.15;97650.03;5019982;28;20436;-60
2021/07/13 03:49:56;;;;;;;13.68;10.07;;;;;;;21.44;78.06;97644.44;5016950;28;20029;-59
2021/07/13 03:52:21;;;;;;;16.73;9.10;;;;;;;21.43;78.13;97635.72;5018785;28;20030;-59
2021/07/13 03:54:47;;;;;;;11.70;9.32;;;;;;;21.56;78.48;97642.59;5017028;28;20988;-59
2021/07/13 03:57:12;;;;;;;12.02;10.18;;;;;;;21.64;77.15;97636.88;5021797;28;20060;-58
2021/07/13 03:59:38;;;;;;;11.88;10.02;;;;;;;21.45;78.27;97611.72;5013180;28;20041;-59
2021/07/13 04:02:03;;;;;;;12.85;10.75;;;;;;;21.76;79.15;97652.69;5016895;28;20029;-59
2021/07/13 04:04:29;;;;;;;12.13;9.45;;;;;;;21.85;78.92;97655.75;5015687;28;20213;-59
2021/07/13 04:06:54;;;;;;;12.75;10.23;;;;;;;21.62;78.72;97612.53;5015201;28;20025;-58
2021/07/13 04:09:19;;;;;;;12.40;10.02;;;;;;;21.90;78.07;97661.09;5018046;28;20448;-59
2021/07/13 04:11:46;;;;;;;12.75;10.20;;;;;;;21.54;78.45;97652.59;5015344;28;20029;-58
2021/07/13 04:14:11;;;;;;;13.60;10.10;;;;;;;21.71;78.59;97662.41;5021566;28;20540;-58
2021/07/13 04:16:37;;;;;;;11.85;10.55;;;;;;;21.54;79.07;97620.88;5030056;28;20105;-59
2021/07/13 04:19:03;;;;;;;13.20;10.40;;;;;;;21.83;78.51;97645.41;5015852;28;20048;-58
2021/07/13 04:21:29;;;;;;;13.38;10.55;;;;;;;21.83;77.79;97616.28;5016490;28;20021;-59
2021/07/13 04:23:54;;;;;;;12.25;9.52;;;;;;;21.72;77.50;97580.13;5021890;28;20029;-58
2021/07/13 04:26:20;;;;;;;12.10;10.25;;;;;;;21.76;78.12;97580.44;5019504;28;20446;-58
2021/07/13 04:28:45;;;;;;;14.32;10.38;;;;;;;22.01;78.98;97620.53;5019771;28;20037;-57
2021/07/13 04:31:11;;;;;;;15.00;10.43;;;;;;;22.05;78.69;97610.25;5019262;28;20029;-59
2021/07/13 04:33:36;;;;;;;13.48;10.27;;;;;;;21.93;78.07;97568.00;5019948;28;20379;-59
2021/07/13 04:36:02;;;;;;;10.70;9.55;;;;;;;21.99;78.55;97584.75;5016616;28;20026;-58
2021/07/13 04:38:28;;;;;;;12.93;9.70;;;;;;;22.08;78.43;97588.59;5023417;28;20041;-58
2021/07/13 04:40:53;;;;;;;12.35;9.57;;;;;;;22.02;77.82;97557.81;5019720;28;20105;-59
2021/07/13 04:43:19;;;;;;;10.73;9.50;;;;;;;21.82;78.71;97532.66;5023353;28;20124;-59
2021/07/13 04:45:45;;;;;;;12.07;9.52;;;;;;;21.92;77.26;97571.69;5023420;28;20494;-59
2021/07/13 04:48:10;;;;;;;13.57;9.82;;;;;;;21.92;77.05;97594.72;5025456;28;20442;-58
2021/07/13 04:50:36;;;;;;;12.30;9.48;;;;;;;21.92;78.49;97605.28;5018047;28;20041;-59
2021/07/13 04:53:02;;;;;;;11.70;9.27;;;;;;;22.00;77.77;97581.88;5023035;28;20052;-58
2021/07/13 04:55:27;;;;;;;11.43;9.32;;;;;;;21.57;77.88;97534.94;5021763;28;20064;-59
2021/07/13 04:57:54;;;;;;;11.43;9.75;;;;;;;21.70;78.00;97534.59;5023338;28;20087;-58
2021/07/13 05:00:20;;;;;;;12.07;10.85;;;;;;;21.65;78.18;97508.88;5024797;28;20072;-58
2021/07/13 05:02:45;;;;;;;13.10;9.23;;;;;;;21.47;79.54;97559.41;5017132;28;20140;-58
2021/07/13 05:05:11;;;;;;;11.57;9.95;;;;;;;21.56;80.03;97518.28;5025207;28;20029;-59
2021/07/13 05:07:44;;;;;;;11.73;9.95;;;;;;;21.38;79.28;97543.09;4995287;28;20038;-59
2021/07/13 05:10:11;;;;;;;12.70;9.25;;;;;;;21.56;79.42;97544.72;5015579;28;20033;-58
2021/07/13 05:12:38;;;;;;;12.30;9.57;;;;;;;21.72;78.57;97542.28;5023588;28;20094;-58
2021/07/13 05:15:08;;;;;;;12.73;9.05;;;;;;;21.69;78.82;97551.53;5038783;28;20040;-58
2021/07/13 05:17:36;;;;;;;13.48;11.25;;;;;;;21.74;78.90;97577.25;5032582;28;20041;-59
2021/07/13 05:20:04;;;;;;;11.02;9.20;;;;;;;21.71;78.20;97602.34;5019642;28;20742;-59
2021/07/13 05:22:29;;;;;;;14.07;10.32;;;;;;;21.53;76.89;97615.81;5022098;28;20040;-58
2021/07/13 05:24:55;;;;;;;13.18;9.75;;;;;;;21.53;77.42;97566.34;5014904;28;20376;-58
2021/07/13 05:27:20;;;;;;;14.27;11.07;;;;;;;21.28;78.17;97504.09;5017125;28;20116;-59
2021/07/13 05:29:45;;;;;;;11.43;10.18;;;;;;;21.35;78.08;97521.63;5019613;28;20049;-58
2021/07/13 05:32:11;;;;;;;12.43;10.57;;;;;;;21.45;75.39;97535.03;5022266;28;20160;-58
2021/07/13 05:34:36;;;;;;;13.23;10.60;;;;;;;21.55;77.22;97537.03;5020529;28;20593;-59
2021/07/13 05:37:04;;;;;;;12.05;10.10;;;;;;;21.58;76.00;97536.56;5021293;28;20141;-59
2021/07/13 05:39:30;;;;;;;12.95;9.95;;;;;;;21.57;74.32;97505.84;5022255;28;20080;-60
2021/07/13 05:41:55;;;;;;;11.05;9.88;;;;;;;21.63;75.19;97500.41;5014991;28;20029;-59
2021/07/13 05:44:21;;;;;;;15.77;9.85;;;;;;;21.58;75.43;97492.38;5021963;28;20033;-59
2021/07/13 05:46:46;;;;;;;12.90;11.40;;;;;;;21.63;77.02;97465.19;5024250;28;20033;-59
2021/07/13 05:49:12;;;;;;;14.35;10.25;;;;;;;21.49;77.73;97467.41;5020030;28;20040;-59
2021/07/13 05:51:37;;;;;;;13.18;11.02;;;;;;;21.56;76.97;97470.69;5020030;28;20021;-58
2021/07/13 05:54:02;;;;;;;13.80;11.30;;;;;;;21.68;76.62;97452.03;5014308;28;20064;-59
2021/07/13 05:56:28;;;;;;;12.20;9.63;;;;;;;21.72;75.43;97437.28;5019427;28;20026;-58
2021/07/13 05:58:53;;;;;;;17.73;13.45;;;;;;;21.66;75.87;97402.03;5032476;28;20021;-58
2021/07/13 06:01:19;;;;;;;14.85;10.88;;;;;;;21.64;74.81;97390.91;5030296;28;20637;-58
2021/07/13 06:03:44;;;;;;;17.65;13.93;;;;;;;21.91;72.87;97427.22;5017650;28;20036;-58
2021/07/13 06:06:10;;;;;;;14.07;11.98;;;;;;;22.04;72.37;97416.22;5021504;28;20037;-58
2021/07/13 06:08:35;;;;;;;14.27;8.13;;;;;;;22.62;60.75;97387.44;5019249;28;20439;-58
2021/07/13 06:11:00;;;;;;;11.43;7.75;;;;;;;22.82;58.66;97325.88;5022728;28;20044;-58
2021/07/13 06:13:26;;;;;;;16.17;5.82;;;;;;;23.36;55.26;97356.66;5014294;28;20026;-58
2021/07/13 06:15:51;;;;;;;9.20;5.88;;;;;;;23.55;54.40;97343.78;5018711;28;20734;-58
2021/07/13 06:18:20;;;;;;;27.25;24.65;;;;;;;23.68;52.53;97315.19;5019381;28;20030;-58
2021/07/13 06:20:46;;;;;;;10.93;8.60;;;;;;;23.82;51.80;97267.72;5021593;28;20048;-58
2021/07/13 06:23:12;;;;;;;42.20;38.05;;;;;;;23.92;49.74;97254.47;5037607;28;20033;-59
2021/07/13 06:25:37;;;;;;;41.72;25.42;;;;;;;24.02;49.81;97296.16;5019334;28;20385;-59
2021/07/13 06:28:03;;;;;;;144.45;133.02;;;;;;;23.94;49.09;97197.41;5021622;28;20132;-59
2021/07/13 06:30:29;;;;;;;18.98;16.10;;;;;;;24.00;49.34;97264.56;5015662;28;20036;-59
2021/07/13 06:32:54;;;;;;;14.20;10.60;;;;;;;24.00;49.39;97245.97;5017592;28;20472;-59
2021/07/13 06:35:19;;;;;;;9.40;7.88;;;;;;;24.28;48.71;97286.38;5017270;28;20036;-59
2021/07/13 06:37:45;;;;;;;34.55;30.90;;;;;;;24.28;48.41;97267.78;5020134;28;20034;-59
2021/07/13 06:40:11;;;;;;;30.83;19.90;;;;;;;24.40;48.15;97310.00;5028408;28;20033;-59
2021/07/13 06:42:36;;;;;;;15.23;11.90;;;;;;;24.17;48.36;97282.91;5015971;28;20034;-59
2021/07/13 06:45:03;;;;;;;29.65;27.65;;;;;;;24.13;48.73;97345.53;5015562;28;20034;-57
2021/07/13 06:47:28;;;;;;;51.25;47.83;;;;;;;24.15;50.50;97377.97;5018123;28;20232;-58
2021/07/13 06:49:53;;;;;;;16.90;13.00;;;;;;;24.06;51.41;97430.78;5019837;28;20582;-59
2021/07/13 06:52:19;;;;;;;19.80;18.20;;;;;;;24.13;50.86;97457.06;5020757;28;20052;-59
2021/07/13 06:54:44;;;;;;;8.60;6.68;;;;;;;24.05;52.35;97449.63;5031278;28;20040;-59
2021/07/13 06:57:10;;;;;;;19.70;18.17;;;;;;;23.74;53.21;97421.06;5035870;28;20120;-59
2021/07/13 06:59:35;;;;;;;9.05;7.10;;;;;;;23.66;53.50;97434.03;5016635;28;20038;-59
2021/07/13 07:02:01;;;;;;;11.57;7.80;;;;;;;23.52;54.93;97426.53;5019976;28;20741;-59
2021/07/13 07:04:27;;;;;;;17.17;15.80;;;;;;;23.71;54.15;97402.19;5018127;28;20029;-60
2021/07/13 07:06:52;;;;;;;14.27;11.93;;;;;;;23.65;54.79;97395.28;5019254;28;20034;-59
2021/07/13 07:09:17;;;;;;;8.98;5.82;;;;;;;23.95;51.91;97382.16;5009032;28;20060;-59
2021/07/13 07:11:43;;;;;;;13.48;12.07;;;;;;;24.05;52.16;97410.59;5024611;28;20463;-59
2021/07/13 07:14:08;;;;;;;11.82;10.38;;;;;;;23.97;53.12;97382.69;5011406;28;20064;-59
2021/07/13 07:16:34;;;;;;;16.00;14.48;;;;;;;24.01;50.82;97368.91;5031154;28;20037;-59
2021/07/13 07:18:59;;;;;;;8.55;5.85;;;;;;;23.61;52.91;97377.22;5017512;28;20033;-60
2021/07/13 07:21:25;;;;;;;9.68;8.27;;;;;;;23.74;54.46;97428.22;5012259;28;20061;-59
2021/07/13 07:23:50;;;;;;;26.23;23.98;;;;;;;23.65;52.99;97414.66;5016588;28;20042;-59
2021/07/13 07:26:15;;;;;;;9.25;7.75;;;;;;;23.77;54.71;97500.16;5010735;28;20231;-59
2021/07/13 07:28:41;;;;;;;10.25;7.07;;;;;;;23.64;54.58;97487.34;5016775;28;20033;-59
2021/07/13 07:31:06;;;;;;;10.23;7.75;;;;;;;23.33;55.80;97478.41;5029696;28;20076;-59
2021/07/13 07:33:32;;;;;;;10.95;7.75;;;;;;;23.50;56.34;97524.13;5018877;28;20388;-59
2021/07/13 07:35:57;;;;;;;18.60;17.17;;;;;;;23.17;56.55;97453.63;5015984;28;20036;-60
2021/07/13 07:38:23;;;;;;;8.32;5.43;;;;;;;23.34;57.17;97493.25;5035869;28;20034;-59
2021/07/13 07:40:48;;;;;;;12.10;6.18;;;;;;;22.98;57.35;97451.34;5013905;28;20030;-59
2021/07/13 07:43:14;;;;;;;11.15;8.35;;;;;;;23.23;57.76;97477.25;5015860;28;20430;-59
2021/07/13 07:45:39;;;;;;;10.93;5.45;;;;;;;23.39;55.21;97466.78;5016126;28;20088;-59
2021/07/13 07:48:05;;;;;;;12.35;6.78;;;;;;;23.21;56.31;97404.31;5019034;28;20033;-59
2021/07/13 07:50:30;;;;;;;28.17;26.00;;;;;;;23.45;56.63;97407.38;5015848;28;20033;-59
2021/07/13 07:52:56;;;;;;;42.50;39.60;;;;;;;23.48;54.86;97406.09;5015785;28;20571;-60
2021/07/13 07:55:24;;;;;;;10.32;6.07;;;;;;;23.05;58.77;97416.69;5033182;28;20036;-60
2021/07/13 07:57:50;;;;;;;11.60;10.47;;;;;;;23.08;58.02;97449.84;5017086;28;20142;-60
2021/07/13 08:00:17;;;;;;;23.33;21.30;;;;;;;23.11;56.41;97489.91;5016425;28;20391;-60
2021/07/13 08:02:43;;;;;;;8.15;6.00;;;;;;;23.06;58.12;97510.28;5026726;28;20082;-60
2021/07/13 08:05:09;;;;;;;24.95;23.05;;;;;;;22.71;61.67;97516.78;5011551;28;20501;-59
2021/07/13 08:07:35;;;;;;;9.02;7.20;;;;;;;22.44;64.13;97526.31;5017083;28;20785;-60
2021/07/13 08:10:01;;;;;;;11.70;10.50;;;;;;;22.29;64.90;97538.56;5009869;28;20036;-60
2021/07/13 08:12:27;;;;;;;9.05;7.75;;;;;;;22.18;65.93;97556.16;5013993;28;20114;-60
2021/07/13 08:14:52;;;;;;;13.13;9.70;;;;;;;21.89;66.65;97551.03;5020128;28;20560;-60
2021/07/13 08:17:19;;;;;;;12.27;9.77;;;;;;;21.82;67.10;97563.63;5018458;28;20097;-60
2021/07/13 08:19:45;;;;;;;12.40;8.55;;;;;;;21.81;67.53;97525.78;5026047;28;20144;-60
2021/07/13 08:22:11;;;;;;;10.32;8.40;;;;;;;21.98;67.56;97564.66;5033605;28;20035;-60
2021/07/13 08:24:37;;;;;;;11.50;9.88;;;;;;;21.83;68.28;97570.50;5017733;28;20030;-60
2021/07/13 08:27:04;;;;;;;11.95;8.65;;;;;;;21.54;68.45;97530.94;5020251;28;20029;-60
2021/07/13 08:29:29;;;;;;;12.13;10.27;;;;;;;21.78;69.69;97562.50;5019191;28;20030;-60
2021/07/13 08:31:59;;;;;;;13.15;11.43;;;;;;;21.83;69.36;97586.38;5023087;28;20245;-60
2021/07/13 08:34:24;;;;;;;;;;;;;;;22.24;68.90;97565.78;5014361;28;20080;-59
2021/07/13 08:36:50;;;;;;;16.73;15.30;;;;;;;22.41;66.12;97481.00;5022307;28;19912;-60
2021/07/13 08:39:15;;;;;;;12.70;9.77;;;;;;;22.57;65.62;97506.59;5019956;28;20103;-60
2021/07/13 08:41:41;;;;;;;12.45;7.32;;;;;;;22.84;61.92;97511.91;5020091;28;20120;-60
2021/07/13 08:44:07;;;;;;;11.30;6.20;;;;;;;23.76;59.85;97519.78;5014966;28;20060;-60
2021/07/13 08:46:32;;;;;;;11.10;10.02;;;;;;;23.48;58.92;97481.16;5019848;28;20134;-60
2021/07/13 08:49:02;;;;;;;9.32;8.43;;;;;;;23.36;59.72;97491.13;5020248;28;20032;-60
2021/07/13 08:51:27;;;;;;;8.73;5.68;;;;;;;23.29;59.97;97507.28;5020155;28;20049;-60
2021/07/13 08:53:52;;;;;;;6.47;5.32;;;;;;;23.31;58.26;97496.41;5018795;28;20032;-60
2021/07/13 08:56:18;;;;;;;8.73;5.47;;;;;;;23.30;58.85;97474.41;5019048;28;21018;-60
2021/07/13 08:58:43;;;;;;;8.13;5.07;;;;;;;23.63;57.64;97488.41;5020054;28;20021;-60
2021/07/13 09:01:08;;;;;;;9.23;6.32;;;;;;;23.84;56.53;97480.56;5032762;28;20107;-60
2021/07/13 09:03:34;;;;;;;8.52;7.63;;;;;;;24.12;56.43;97482.03;5021537;28;20432;-60
2021/07/13 09:06:00;;;;;;;16.80;15.52;;;;;;;23.93;56.84;97473.72;5035346;28;20052;-61
2021/07/13 09:08:36;;;;;;;69.60;65.13;;;;;;;23.85;55.02;97471.56;5016175;28;20030;-60
2021/07/13 09:11:04;;;;;;;7.80;5.80;;;;;;;23.63;55.73;97461.88;5019608;28;20042;-60
2021/07/13 09:13:32;;;;;;;15.07;13.55;;;;;;;23.23;58.26;97473.81;5011047;28;20034;-60
2021/07/13 09:15:58;;;;;;;7.57;5.43;;;;;;;23.27;58.99;97517.31;5014199;28;20052;-60
2021/07/13 09:18:29;;;;;;;9.20;6.68;;;;;;;22.76;61.96;97504.41;5016759;28;20033;-60
2021/07/13 09:21:15;;;;;;;11.32;8.75;;;;;;;22.77;65.48;97537.00;5017400;28;20034;-60
2021/07/13 09:24:21;;;;;;;10.32;7.35;;;;;;;22.73;66.73;97555.25;5011297;28;20333;-60
2021/07/13 09:26:54;;;;;;;10.43;8.38;;;;;;;22.89;68.58;97540.31;4983482;28;20045;-60
2021/07/13 09:29:40;;;;;;;9.93;7.10;;;;;;;22.98;68.81;97538.81;5014246;28;20045;-60
2021/07/13 09:32:29;;;;;;;10.52;6.40;;;;;;;22.83;68.62;97531.50;5022275;28;20078;-59
2021/07/13 09:35:07;;;;;;;10.85;9.77;;;;;;;22.79;68.43;97524.31;5017940;28;20087;-60
2021/07/13 09:37:38;;;;;;;14.18;12.88;;;;;;;22.86;68.86;97527.56;5015192;28;20041;-60
2021/07/13 09:40:13;;;;;;;11.88;9.95;;;;;;;22.97;66.96;97521.28;5015762;28;20037;-60
2021/07/13 09:42:45;;;;;;;48.40;45.17;;;;;;;23.00;68.03;97526.09;5011683;28;20030;-60
2021/07/13 09:45:28;;;;;;;12.88;9.95;;;;;;;22.88;66.27;97535.25;5019202;28;20034;-59
2021/07/13 09:47:55;;;;;;;12.65;10.00;;;;;;;22.48;68.02;97497.50;5019247;28;20042;-60
2021/07/13 09:50:30;;;;;;;16.17;14.80;;;;;;;22.68;66.94;97534.00;5017428;28;20084;-60
2021/07/13 09:53:15;;;;;;;10.93;7.32;;;;;;;22.80;66.68;97534.66;5011824;28;20026;-61
2021/07/13 09:55:41;;;;;;;30.75;28.38;;;;;;;22.83;64.81;97507.66;5021487;28;20040;-60
2021/07/13 09:58:17;;;;;;;17.08;15.63;;;;;;;22.97;64.24;97536.41;5017307;28;20033;-60
2021/07/13 10:00:45;;;;;;;9.13;7.43;;;;;;;22.68;65.69;97512.81;5016282;28;20029;-61
2021/07/13 10:03:13;;;;;;;9.35;8.02;;;;;;;22.96;62.54;97519.72;5017997;28;20036;-60
2021/07/13 10:05:39;;;;;;;24.73;22.85;;;;;;;23.50;58.75;97505.56;5018695;28;20507;-60
2021/07/13 10:08:06;;;;;;;18.45;17.00;;;;;;;23.49;61.20;97481.94;5002889;28;20028;-60
2021/07/13 10:10:32;;;;;;;14.13;10.48;;;;;;;23.69;59.62;97484.72;5022156;28;20107;-61
2021/07/13 10:12:58;;;;;;;35.65;32.75;;;;;;;23.73;58.69;97416.00;5020526;28;20033;-61
2021/07/13 10:15:24;;;;;;;16.70;15.13;;;;;;;24.03;56.41;97491.56;5014202;28;20093;-60
2021/07/13 10:17:50;;;;;;;10.45;8.30;;;;;;;24.09;55.79;97458.66;5018441;28;20030;-62
2021/07/13 10:20:20;;;;;;;12.18;10.82;;;;;;;24.22;55.64;97455.50;5016114;28;20090;-60
2021/07/13 10:22:46;;;;;;;11.63;5.32;;;;;;;24.43;54.62;97437.78;5021007;28;20044;-61
2021/07/13 10:25:12;;;;;;;11.13;6.10;;;;;;;24.56;54.45;97417.88;5011689;28;20038;-60
2021/07/13 10:27:48;;;;;;;14.07;9.88;;;;;;;24.56;52.84;97349.59;5011575;28;20048;-60
2021/07/13 10:30:17;;;;;;;22.90;21.17;;;;;;;24.71;53.34;97382.53;5019907;28;20077;-60
2021/07/13 10:32:43;;;;;;;6.68;5.80;;;;;;;24.61;51.90;97313.47;5021206;28;20113;-60
2021/07/13 10:35:25;;;;;;;33.70;31.52;;;;;;;24.92;51.19;97328.31;5038155;28;20032;-61
2021/07/13 10:37:54;;;;;;;10.70;6.03;;;;;;;25.08;51.68;97361.00;5021736;28;20495;-60
2021/07/13 10:40:26;;;;;;;19.05;17.33;;;;;;;25.14;51.45;97359.13;5016974;28;20025;-60
2021/07/13 10:42:58;;;;;;;9.68;8.75;;;;;;;25.23;50.24;97372.66;5022868;28;20041;-60
2021/07/13 10:45:35;;;;;;;10.85;7.47;;;;;;;25.33;50.55;97352.16;5017470;28;20029;-61
2021/07/13 10:48:06;;;;;;;26.65;24.63;;;;;;;25.42;50.31;97365.69;5019609;28;20087;-61
2021/07/13 10:50:32;;;;;;;14.48;13.02;;;;;;;25.44;49.00;97341.50;5011700;28;20068;-61
2021/07/13 10:52:58;;;;;;;9.52;6.15;;;;;;;25.57;49.26;97329.47;5020513;28;20496;-61
2021/07/13 10:55:29;;;;;;;14.50;8.48;;;;;;;25.60;49.12;97321.72;5021512;28;20090;-60
2021/07/13 10:58:11;;;;;;;12.50;10.57;;;;;;;25.64;49.00;97338.75;5023880;28;20095;-60
2021/07/13 11:00:54;;;;;;;10.27;6.07;;;;;;;25.71;48.92;97349.88;5018527;28;20038;-60
2021/07/13 11:03:32;;;;;;;14.30;13.15;;;;;;;25.56;49.46;97349.19;5014979;28;20543;-60
2021/07/13 11:06:04;;;;;;;10.70;5.60;;;;;;;25.49;50.68;97376.06;5018602;28;20029;-60
2021/07/13 11:08:39;;;;;;;17.92;16.58;;;;;;;25.47;50.41;97375.53;5015045;28;20072;-60
2021/07/13 11:11:30;;;;;;;29.98;27.85;;;;;;;25.39;50.14;97347.66;5013346;28;20034;-60
2021/07/13 11:14:02;;;;;;;12.52;7.50;;;;;;;25.39;50.27;97392.06;5013575;28;20480;-60
2021/07/13 11:16:36;;;;;;;10.52;6.75;;;;;;;25.66;51.17;97381.84;5013652;28;20064;-60
2021/07/13 11:19:11;;;;;;;34.90;32.40;;;;;;;25.37;50.36;97341.78;5026179;28;20094;-60
2021/07/13 11:21:37;;;;;;;18.95;17.30;;;;;;;25.50;49.23;97370.47;5017755;28;20041;-60
2021/07/13 11:24:03;;;;;;;68.28;63.15;;;;;;;25.30;49.85;97352.72;5017226;28;20044;-60
2021/07/13 11:26:29;;;;;;;26.00;24.20;;;;;;;25.40;49.09;97380.34;5014106;28;20225;-60
2021/07/13 11:28:59;;;;;;;10.23;8.90;;;;;;;25.37;49.54;97340.97;5011389;28;20029;-60